KDHN/DHN METAR and TAF weather

Enter ICAO airport designator
Station Type Date Time Source
KDHN METAR 2018/12/12 15:53 UTC NOAA

KDHN 121553Z 21006KT 10SM CLR 09/01 A3035 RMK AO2 SLP277 T00890006


Station Type Date Time Source
KDHN Decoded METAR 2018/12/12 15:53 UTC NOAA

DOTHAN AIRPORT, AL, United States (KDHN) 31-19N 085-27W 113M
Dec 12, 2018 - 10:53 AM EST / 2018.12.12 1553 UTC
Wind: from the SSW (210 degrees) at 7 MPH (6 KT):0
Visibility: 10 mile(s):0
Sky conditions: clear
Temperature: 48.0 F (8.9 C)
Dew Point: 33.1 F (0.6 C)
Relative Humidity: 55%
Pressure (altimeter): 30.35 in. Hg (1027 hPa)
ob: KDHN 121553Z 21006KT 10SM CLR 09/01 A3035 RMK AO2 SLP277 T00890006
cycle: 16

Station Type Date Time Source
KDHN TAF 2018/12/12 12:22 UTC NOAA

TAF KDHN 121120Z 1212/1312 VRB03KT P6SM SKC
FM121400 22007KT P6SM SCT250


Example: see airport list